Time;durP1;ratioP1;P1;durP2;ratioP2;P2;SDS_P1;SDS_P2;PMS_P1;PMS_P2;Temp;Humidity;BMP_temperature;BMP_pressure;BME280_temperature;BME280_humidity;BME280_pressure;Samples;Min_cycle;Max_cycle;Signal;HPM_P1;HPM_P2
2022/10/27 00:00:05;;;;;;;7.13;4.20;;;14.70;96.60;;;;;;5120007;28;20525;-45
2022/10/27 00:02:31;;;;;;;8.40;5.03;;;14.60;96.60;;;;;;5119994;28;20291;-44
2022/10/27 00:04:56;;;;;;;7.00;4.63;;;14.60;96.60;;;;;;5119208;28;20526;-45
2022/10/27 00:07:22;;;;;;;5.97;4.40;;;14.60;96.60;;;;;;5119590;28;20221;-43
2022/10/27 00:09:48;;;;;;;5.97;4.63;;;14.60;96.60;;;;;;5117805;28;20220;-43
2022/10/27 00:12:13;;;;;;;7.77;4.50;;;14.60;96.70;;;;;;5117998;28;20188;-46
2022/10/27 00:14:40;;;;;;;8.50;5.13;;;14.60;96.60;;;;;;5117998;28;20281;-43
2022/10/27 00:17:05;;;;;;;5.57;4.47;;;14.50;96.50;;;;;;5099940;28;20176;-44
2022/10/27 00:19:31;;;;;;;9.17;5.37;;;14.50;96.50;;;;;;5117105;28;20534;-49
2022/10/27 00:21:57;;;;;;;6.03;3.87;;;14.50;96.50;;;;;;5117135;28;20212;-44
2022/10/27 00:24:23;;;;;;;7.00;4.80;;;14.50;96.60;;;;;;5118039;28;20180;-45
2022/10/27 00:26:48;;;;;;;5.67;4.07;;;14.40;96.50;;;;;;5118752;28;20413;-45
2022/10/27 00:29:14;;;;;;;6.77;5.37;;;14.40;96.50;;;;;;5119692;28;20897;-45
2022/10/27 00:31:39;;;;;;;7.30;5.00;;;14.40;96.50;;;;;;5118768;28;20299;-45
2022/10/27 00:34:05;;;;;;;7.97;5.80;;;14.40;96.50;;;;;;5118300;28;20169;-43
2022/10/27 00:36:31;;;;;;;7.43;4.87;;;14.40;96.50;;;;;;5118880;28;20178;-45
2022/10/27 00:38:58;;;;;;;7.30;5.17;;;14.40;97.10;;;;;;5118620;28;20271;-45
2022/10/27 00:41:26;;;;;;;6.50;5.40;;;14.40;97.00;;;;;;5118228;28;20567;-48
2022/10/27 00:43:52;;;;;;;6.83;4.70;;;14.40;96.90;;;;;;5117772;28;20422;-46
2022/10/27 00:46:27;;;;;;;7.17;4.67;;;14.40;96.70;;;;;;5100504;28;20842;-44
2022/10/27 00:49:01;;;;;;;7.33;5.20;;;14.40;96.50;;;;;;5118797;28;20413;-44
2022/10/27 00:51:26;;;;;;;7.73;5.10;;;14.30;96.40;;;;;;5118475;28;20453;-43
2022/10/27 00:53:53;;;;;;;5.60;5.00;;;14.20;96.50;;;;;;5099804;28;20684;-44
2022/10/27 00:56:19;;;;;;;10.97;5.00;;;14.30;96.60;;;;;;5101003;28;20247;-44
2022/10/27 00:58:45;;;;;;;6.83;5.20;;;14.20;96.40;;;;;;5119053;28;20446;-46
2022/10/27 01:01:12;;;;;;;8.20;5.30;;;14.20;96.50;;;;;;5118065;28;20199;-43
2022/10/27 01:03:37;;;;;;;6.50;4.83;;;14.20;96.50;;;;;;5118047;28;20504;-43
2022/10/27 01:06:03;;;;;;;6.30;4.63;;;14.10;96.50;;;;;;5118436;28;20516;-43
2022/10/27 01:08:29;;;;;;;6.20;4.20;;;14.10;96.50;;;;;;5100312;28;20408;-43
2022/10/27 01:10:55;;;;;;;6.67;5.13;;;14.10;96.50;;;;;;5099905;28;20308;-45
2022/10/27 01:13:21;;;;;;;6.97;4.90;;;14.00;96.60;;;;;;5117847;28;20235;-45
2022/10/27 01:15:52;;;;;;;9.70;5.40;;;14.00;96.60;;;;;;5118269;28;20454;-44
2022/10/27 01:18:26;;;;;;;8.23;5.53;;;14.00;96.70;;;;;;5118437;28;20217;-44
2022/10/27 01:21:09;;;;;;;6.87;5.40;;;14.00;96.80;;;;;;5099819;28;20465;-44
2022/10/27 01:23:48;;;;;;;7.97;5.53;;;13.90;96.70;;;;;;5118126;28;20410;-45
2022/10/27 01:26:42;;;;;;;7.03;4.50;;;13.90;96.70;;;;;;5117736;28;20518;-45
2022/10/27 01:29:33;;;;;;;5.70;4.80;;;13.90;96.70;;;;;;5114626;28;20508;-47
2022/10/27 01:32:09;;;;;;;7.90;4.90;;;13.90;96.70;;;;;;5118384;28;20820;-45
2022/10/27 01:34:44;;;;;;;6.83;5.03;;;13.90;96.80;;;;;;5100258;28;20500;-45
2022/10/27 01:37:10;;;;;;;9.23;5.00;;;13.90;96.70;;;;;;5099869;28;20466;-43
2022/10/27 01:40:03;;;;;;;6.33;4.63;;;13.80;96.60;;;;;;5117743;28;20428;-43
2022/10/27 01:42:49;;;;;;;7.77;4.47;;;13.80;96.50;;;;;;5103948;28;20836;-44
2022/10/27 01:45:21;;;;;;;5.60;4.83;;;13.70;96.60;;;;;;5099544;28;20717;-46
2022/10/27 01:47:47;;;;;;;8.73;4.97;;;13.70;96.50;;;;;;5118071;28;20458;-44
2022/10/27 01:50:23;;;;;;;6.60;4.67;;;13.70;96.60;;;;;;5117817;28;20471;-45
2022/10/27 01:52:49;;;;;;;5.73;5.13;;;13.70;96.60;;;;;;5117412;28;20187;-45
2022/10/27 01:55:19;;;;;;;7.27;5.30;;;13.60;96.70;;;;;;5118218;28;20426;-44
2022/10/27 01:57:54;;;;;;;7.10;4.90;;;13.60;96.80;;;;;;5104528;28;20420;-44
2022/10/27 02:00:21;;;;;;;5.97;4.70;;;13.60;96.80;;;;;;5104115;28;20429;-48
2022/10/27 02:02:48;;;;;;;8.83;5.37;;;13.60;96.80;;;;;;5121640;28;20648;-44
2022/10/27 02:05:40;;;;;;;6.10;4.67;;;13.60;96.80;;;;;;5103761;28;20422;-44
2022/10/27 02:08:27;;;;;;;6.10;4.93;;;13.60;96.90;;;;;;5104163;28;20405;-46
2022/10/27 02:11:02;;;;;;;7.87;4.90;;;13.50;96.80;;;;;;5121914;28;20468;-43
2022/10/27 02:13:29;;;;;;;5.07;4.57;;;13.50;96.70;;;;;;5121534;28;20512;-45
2022/10/27 02:16:00;;;;;;;6.80;5.20;;;13.50;96.70;;;;;;5102996;28;20421;-44
2022/10/27 02:18:30;;;;;;;6.03;5.30;;;13.50;96.60;;;;;;5104000;28;20402;-43
2022/10/27 02:21:07;;;;;;;5.83;4.53;;;13.50;96.60;;;;;;5121348;28;20481;-46
2022/10/27 02:23:34;;;;;;;7.53;5.67;;;13.40;96.60;;;;;;5103785;28;20417;-45
2022/10/27 02:26:25;;;;;;;9.77;5.73;;;13.40;96.60;;;;;;5121482;28;20491;-45
2022/10/27 02:29:02;;;;;;;10.90;5.10;;;13.40;96.60;;;;;;5110020;28;20434;-43
2022/10/27 02:31:31;;;;;;;5.73;5.23;;;13.40;96.60;;;;;;5121430;28;20457;-47
2022/10/27 02:33:57;;;;;;;8.27;5.23;;;13.40;96.60;;;;;;5121322;28;20442;-43
2022/10/27 02:36:23;;;;;;;5.30;4.80;;;13.30;97.00;;;;;;5121334;28;20527;-43
2022/10/27 02:38:48;;;;;;;6.20;4.90;;;13.30;96.70;;;;;;5121204;28;20421;-45
2022/10/27 02:41:14;;;;;;;8.50;5.20;;;13.30;96.80;;;;;;5121076;28;20247;-43
2022/10/27 02:43:40;;;;;;;7.00;5.30;;;13.30;96.80;;;;;;5120434;28;20478;-45
2022/10/27 02:46:05;;;;;;;5.40;4.70;;;13.30;96.90;;;;;;5120564;28;20192;-45
2022/10/27 02:48:31;;;;;;;8.07;5.60;;;13.30;96.90;;;;;;5120780;28;20184;-44
2022/10/27 02:50:57;;;;;;;8.13;6.10;;;13.30;96.90;;;;;;5119812;28;20493;-45
2022/10/27 02:53:23;;;;;;;6.17;5.53;;;13.30;97.00;;;;;;5119727;28;20655;-43
2022/10/27 02:55:49;;;;;;;6.80;5.90;;;13.30;97.00;;;;;;5084673;28;20429;-45
2022/10/27 02:58:14;;;;;;;7.60;5.83;;;13.20;97.00;;;;;;5120445;28;20554;-47
2022/10/27 03:00:40;;;;;;;6.73;5.47;;;13.20;97.10;;;;;;5120790;28;20192;-45
2022/10/27 03:03:05;;;;;;;9.40;5.03;;;13.20;97.10;;;;;;5119296;28;20523;-46
2022/10/27 03:05:31;;;;;;;6.60;5.43;;;13.20;97.10;;;;;;5119548;28;20185;-46
2022/10/27 03:07:57;;;;;;;9.50;5.83;;;13.20;97.00;;;;;;5120064;28;20184;-48
2022/10/27 03:10:22;;;;;;;8.20;5.77;;;13.10;96.90;;;;;;5120082;28;20223;-45
2022/10/27 03:12:48;;;;;;;6.90;4.63;;;13.10;96.90;;;;;;5119973;28;20180;-44
2022/10/27 03:15:14;;;;;;;8.77;6.43;;;13.10;97.00;;;;;;5119633;28;20185;-48
2022/10/27 03:17:47;;;;;;;11.80;5.90;;;13.10;97.10;;;;;;5120230;28;20543;-45
2022/10/27 03:20:13;;;;;;;9.30;5.70;;;13.10;97.20;;;;;;5120353;28;20504;-45
2022/10/27 03:22:39;;;;;;;6.87;5.27;;;13.10;97.30;;;;;;5119804;28;20826;-44
2022/10/27 03:25:05;;;;;;;7.30;5.37;;;13.10;97.30;;;;;;5115756;28;20435;-47
2022/10/27 03:27:31;;;;;;;15.07;12.73;;;13.10;97.30;;;;;;5108429;28;20411;-45
2022/10/27 03:29:57;;;;;;;11.33;9.57;;;13.10;97.20;;;;;;5081984;28;20740;-45
2022/10/27 03:32:22;;;;;;;11.80;9.30;;;13.00;97.20;;;;;;5117795;28;20423;-44
2022/10/27 03:34:48;;;;;;;11.40;9.40;;;13.00;97.20;;;;;;5120132;28;20180;-46
2022/10/27 03:37:13;;;;;;;9.80;8.83;;;13.00;97.50;;;;;;5120162;28;20447;-45
2022/10/27 03:39:39;;;;;;;9.40;8.50;;;13.00;97.20;;;;;;5120775;28;20239;-44
2022/10/27 03:42:06;;;;;;;9.50;8.03;;;12.90;97.40;;;;;;5120685;28;20285;-45
2022/10/27 03:44:32;;;;;;;9.80;7.87;;;12.90;97.10;;;;;;5120157;28;20434;-46
2022/10/27 03:46:57;;;;;;;9.63;8.23;;;12.90;97.20;;;;;;5085922;28;20437;-47
2022/10/27 03:49:23;;;;;;;8.80;6.43;;;12.90;97.20;;;;;;5119539;28;20177;-43
2022/10/27 03:51:48;;;;;;;7.83;7.13;;;12.90;97.20;;;;;;5119123;28;20223;-46
2022/10/27 03:54:14;;;;;;;7.90;7.20;;;12.90;97.20;;;;;;5119465;28;20273;-45
2022/10/27 03:56:40;;;;;;;7.43;6.50;;;12.90;97.20;;;;;;5119724;28;20192;-44
2022/10/27 03:59:08;;;;;;;7.77;6.17;;;12.90;97.20;;;;;;5118759;28;20238;-45
2022/10/27 04:01:34;;;;;;;7.87;6.23;;;12.90;97.30;;;;;;5088971;28;20280;-43
2022/10/27 04:04:00;;;;;;;7.40;5.50;;;12.80;97.20;;;;;;5080558;28;20489;-43
2022/10/27 04:06:25;;;;;;;6.03;5.47;;;12.80;97.40;;;;;;5098375;28;20404;-43
2022/10/27 04:08:51;;;;;;;8.90;6.53;;;12.80;97.00;;;;;;5098077;28;20268;-44
2022/10/27 04:11:16;;;;;;;8.70;5.50;;;12.80;97.00;;;;;;5097231;28;20228;-44
2022/10/27 04:13:42;;;;;;;7.60;6.03;;;12.80;97.00;;;;;;5097774;28;20626;-43
2022/10/27 04:16:08;;;;;;;9.30;6.27;;;12.80;97.00;;;;;;5098257;28;20181;-43
2022/10/27 04:18:34;;;;;;;6.67;5.77;;;12.70;96.90;;;;;;5096102;28;20181;-47
2022/10/27 04:21:03;;;;;;;7.53;5.53;;;12.70;96.80;;;;;;5115982;28;20881;-47
2022/10/27 04:23:29;;;;;;;6.40;5.37;;;12.70;96.70;;;;;;5082608;28;20185;-44
2022/10/27 04:25:55;;;;;;;8.97;5.80;;;12.70;96.70;;;;;;5116982;28;20422;-45
2022/10/27 04:28:21;;;;;;;9.40;6.30;;;12.70;96.70;;;;;;5081658;28;20191;-45
2022/10/27 04:30:47;;;;;;;6.27;5.67;;;12.70;96.80;;;;;;5116050;28;20470;-47
2022/10/27 04:33:13;;;;;;;10.00;5.80;;;12.60;96.70;;;;;;5117506;28;20411;-44
2022/10/27 04:35:38;;;;;;;11.07;6.70;;;12.60;96.60;;;;;;5116808;28;20515;-45
2022/10/27 04:38:04;;;;;;;8.63;6.37;;;12.60;96.70;;;;;;5116072;28;20721;-46
2022/10/27 04:40:30;;;;;;;8.00;5.57;;;12.60;96.60;;;;;;5116455;28;20219;-47
2022/10/27 04:42:55;;;;;;;6.87;5.97;;;12.60;96.70;;;;;;5116419;28;20192;-48
2022/10/27 04:45:21;;;;;;;10.17;6.00;;;12.60;96.60;;;;;;5116676;28;20182;-45
2022/10/27 04:47:47;;;;;;;9.50;6.33;;;12.60;96.60;;;;;;5098878;28;20230;-44
2022/10/27 04:50:13;;;;;;;7.27;6.17;;;12.50;96.60;;;;;;5082313;28;20899;-46
2022/10/27 04:52:40;;;;;;;9.57;6.60;;;12.50;96.60;;;;;;5118255;28;20180;-45
2022/10/27 04:55:06;;;;;;;8.57;6.37;;;12.50;96.60;;;;;;5118147;28;20430;-48
2022/10/27 04:57:32;;;;;;;7.30;6.57;;;12.50;96.60;;;;;;5099749;28;20463;-46
2022/10/27 04:59:58;;;;;;;10.50;7.00;;;12.50;96.70;;;;;;5117383;28;20419;-44
2022/10/27 05:02:23;;;;;;;8.30;7.47;;;12.50;96.70;;;;;;5097776;28;20779;-45
2022/10/27 05:04:49;;;;;;;7.53;6.60;;;12.40;96.60;;;;;;5095713;28;20187;-44
2022/10/27 05:07:14;;;;;;;8.53;7.20;;;12.40;96.70;;;;;;5077004;28;20181;-44
2022/10/27 05:09:40;;;;;;;9.33;8.30;;;12.40;96.70;;;;;;5100284;28;20333;-45
2022/10/27 05:12:06;;;;;;;11.70;7.07;;;12.40;96.70;;;;;;5114555;28;20734;-44
2022/10/27 05:14:31;;;;;;;7.13;6.40;;;12.40;96.70;;;;;;5114923;28;20275;-44
2022/10/27 05:16:57;;;;;;;9.90;6.47;;;12.40;96.70;;;;;;5114098;28;20265;-46
2022/10/27 05:19:23;;;;;;;10.83;7.20;;;12.50;96.70;;;;;;5093470;28;20228;-46
2022/10/27 05:21:48;;;;;;;9.43;6.50;;;12.50;96.60;;;;;;5109919;28;20193;-45
2022/10/27 05:24:14;;;;;;;8.17;6.23;;;12.40;96.60;;;;;;5110607;28;20181;-45
2022/10/27 05:26:40;;;;;;;8.00;7.20;;;12.50;96.60;;;;;;5110482;28;20193;-44
2022/10/27 05:29:06;;;;;;;10.20;7.23;;;12.50;96.50;;;;;;5109770;28;20758;-44
2022/10/27 05:31:32;;;;;;;9.43;7.03;;;12.50;96.50;;;;;;5110283;28;20208;-47
2022/10/27 05:33:57;;;;;;;9.57;7.40;;;12.40;96.50;;;;;;5109814;28;20260;-44
2022/10/27 05:36:23;;;;;;;11.73;7.03;;;12.40;96.50;;;;;;5092353;28;20299;-44
2022/10/27 05:38:48;;;;;;;11.33;7.17;;;12.40;96.60;;;;;;5110144;28;20610;-45
2022/10/27 05:41:14;;;;;;;12.93;7.13;;;12.40;96.60;;;;;;5113979;28;20184;-43
2022/10/27 05:43:43;;;;;;;10.63;7.20;;;12.40;96.70;;;;;;5113508;28;20690;-45
2022/10/27 05:46:08;;;;;;;9.57;6.90;;;12.40;96.70;;;;;;5113793;28;20192;-47
2022/10/27 05:48:34;;;;;;;9.53;6.50;;;12.40;96.70;;;;;;5114646;28;20418;-46
2022/10/27 05:58:01;;;;;;;8.60;6.87;;;12.40;96.80;;;;;;5105825;28;20687;-44
2022/10/27 06:00:29;;;;;;;8.80;6.93;;;12.40;97.00;;;;;;5095480;28;20450;-43
2022/10/27 06:02:56;;;;;;;8.27;6.27;;;12.40;97.20;;;;;;5094073;28;20498;-45
2022/10/27 06:05:23;;;;;;;8.80;7.10;;;12.40;97.40;;;;;;5094546;28;20431;-45
2022/10/27 06:07:49;;;;;;;12.27;7.10;;;12.50;97.70;;;;;;5094119;28;20704;-46
2022/10/27 06:10:16;;;;;;;8.03;7.07;;;12.50;97.90;;;;;;5093402;28;20479;-44
2022/10/27 06:12:41;;;;;;;9.47;7.87;;;12.50;98.00;;;;;;5094289;28;20181;-44
2022/10/27 06:15:07;;;;;;;9.17;7.83;;;12.60;98.10;;;;;;5095075;28;20442;-43
2022/10/27 06:17:33;;;;;;;9.93;8.10;;;12.60;98.20;;;;;;5094977;28;20430;-44
2022/10/27 06:19:58;;;;;;;10.17;7.67;;;12.60;98.20;;;;;;5094914;28;20900;-45
2022/10/27 06:22:24;;;;;;;10.40;7.67;;;12.70;98.30;;;;;;5094751;28;20180;-44
2022/10/27 06:24:50;;;;;;;11.47;8.60;;;12.70;98.40;;;;;;5095241;28;20187;-44
2022/10/27 06:27:15;;;;;;;7.50;6.77;;;12.80;98.70;;;;;;5093756;28;20181;-44
2022/10/27 06:29:41;;;;;;;9.70;7.60;;;13.00;98.80;;;;;;5094453;28;20212;-46
2022/10/27 06:32:06;;;;;;;8.30;7.60;;;13.20;98.60;;;;;;5101716;28;20202;-44
2022/10/27 06:34:33;;;;;;;7.30;6.60;;;13.30;98.30;;;;;;5113252;28;20288;-45
2022/10/27 06:37:02;;;;;;;10.47;8.07;;;13.50;98.20;;;;;;5114559;28;20184;-43
2022/10/27 06:39:28;;;;;;;10.27;7.33;;;13.60;98.00;;;;;;5115352;28;20528;-44
2022/10/27 06:41:57;;;;;;;22.60;6.60;;;13.80;97.80;;;;;;5115976;28;20705;-42
2022/10/27 06:44:23;;;;;;;11.03;7.63;;;13.90;97.70;;;;;;5118170;28;20421;-44
2022/10/27 06:46:49;;;;;;;8.10;7.20;;;14.00;97.40;;;;;;5118118;28;20749;-45
2022/10/27 06:49:15;;;;;;;7.33;6.63;;;14.20;97.20;;;;;;5119202;28;20417;-46
2022/10/27 06:51:40;;;;;;;8.03;6.77;;;14.30;97.00;;;;;;5118921;28;20874;-44
2022/10/27 06:54:06;;;;;;;7.47;6.77;;;14.50;96.80;;;;;;5119935;28;20193;-44
2022/10/27 06:56:33;;;;;;;7.67;6.70;;;14.70;96.60;;;;;;5119657;28;20189;-42
2022/10/27 06:58:59;;;;;;;9.20;6.80;;;14.80;96.30;;;;;;5118364;28;20260;-43
2022/10/27 07:01:25;;;;;;;10.73;6.50;;;15.00;96.10;;;;;;5119294;28;20900;-43
2022/10/27 07:03:50;;;;;;;8.70;7.07;;;15.20;95.90;;;;;;5119132;28;20416;-47
2022/10/27 07:06:16;;;;;;;8.33;7.20;;;15.30;95.80;;;;;;5118400;28;20185;-42
2022/10/27 07:08:41;;;;;;;11.70;7.40;;;15.60;95.60;;;;;;5118571;28;20198;-45
2022/10/27 07:11:08;;;;;;;7.93;6.63;;;15.80;95.50;;;;;;5118525;28;20213;-47
2022/10/27 07:13:34;;;;;;;10.63;7.87;;;15.90;95.30;;;;;;5119241;28;20241;-45
2022/10/27 07:15:59;;;;;;;9.27;6.90;;;16.20;95.30;;;;;;5118407;28;20712;-43
2022/10/27 07:18:25;;;;;;;7.40;6.70;;;16.40;95.20;;;;;;5119309;28;20191;-43
2022/10/27 07:20:52;;;;;;;8.00;6.57;;;16.60;95.20;;;;;;5116964;28;20240;-44
2022/10/27 07:23:18;;;;;;;9.50;7.50;;;16.90;95.10;;;;;;5117436;28;20188;-46
2022/10/27 07:25:47;;;;;;;11.50;6.97;;;17.10;95.10;;;;;;5117326;28;20467;-47
2022/10/27 07:28:12;;;;;;;8.30;6.60;;;17.40;95.00;;;;;;5118108;28;20526;-46
2022/10/27 07:30:41;;;;;;;8.00;5.80;;;17.70;95.00;;;;;;5118110;28;20554;-46
2022/10/27 07:33:06;;;;;;;7.97;6.23;;;18.00;94.90;;;;;;5118378;28;20175;-47
2022/10/27 07:35:33;;;;;;;7.57;5.90;;;18.30;94.80;;;;;;5119272;28;20598;-43
2022/10/27 07:37:58;;;;;;;5.60;5.10;;;18.60;94.60;;;;;;5117645;28;20575;-42
2022/10/27 07:40:24;;;;;;;7.00;5.30;;;18.90;94.40;;;;;;5117933;28;20421;-44
2022/10/27 07:42:51;;;;;;;7.13;5.50;;;19.20;94.10;;;;;;5099504;28;20188;-43
2022/10/27 07:45:19;;;;;;;7.90;5.20;;;19.50;93.80;;;;;;5119285;28;20203;-45
2022/10/27 07:47:46;;;;;;;7.67;5.73;;;19.80;93.50;;;;;;5100196;28;20699;-45
2022/10/27 07:50:13;;;;;;;6.00;5.07;;;20.20;93.20;;;;;;5116995;28;20567;-43
2022/10/27 07:52:46;;;;;;;7.03;5.53;;;20.50;92.80;;;;;;5118643;28;20420;-46
2022/10/27 07:55:13;;;;;;;8.33;5.10;;;20.90;92.40;;;;;;5118995;28;21032;-44
2022/10/27 07:57:39;;;;;;;5.70;4.50;;;21.20;91.90;;;;;;5117802;28;20444;-43
2022/10/27 08:00:07;;;;;;;5.27;4.30;;;21.50;91.30;;;;;;5117918;28;20439;-43
2022/10/27 08:02:33;;;;;;;8.30;5.20;;;21.90;90.90;;;;;;5116878;28;20898;-45
2022/10/27 08:04:58;;;;;;;5.23;4.70;;;22.20;90.40;;;;;;5115401;28;20523;-44
2022/10/27 08:07:24;;;;;;;5.60;3.97;;;22.50;90.00;;;;;;5116870;28;20194;-47
2022/10/27 08:09:50;;;;;;;6.30;5.03;;;22.80;89.30;;;;;;5116442;28;20187;-43
2022/10/27 08:12:15;;;;;;;6.53;5.13;;;23.20;88.30;;;;;;5118339;28;20180;-43
2022/10/27 08:14:41;;;;;;;6.47;5.73;;;23.50;87.20;;;;;;5116565;28;20240;-44
2022/10/27 08:17:06;;;;;;;7.27;5.20;;;23.80;85.90;;;;;;5116994;28;20456;-49
2022/10/27 08:19:32;;;;;;;8.20;5.23;;;24.20;84.70;;;;;;5116504;28;20220;-45
2022/10/27 08:21:57;;;;;;;8.40;5.73;;;24.50;83.70;;;;;;5116828;28;20256;-45
2022/10/27 08:24:23;;;;;;;7.10;5.13;;;24.90;82.70;;;;;;5118160;28;20208;-47
2022/10/27 08:26:49;;;;;;;6.93;5.80;;;25.20;81.20;;;;;;5118645;28;20271;-45
2022/10/27 08:29:14;;;;;;;6.77;6.10;;;25.60;79.60;;;;;;5118522;28;20187;-46
2022/10/27 08:31:40;;;;;;;7.30;5.07;;;25.90;77.90;;;;;;5118860;28;20284;-46
2022/10/27 08:34:05;;;;;;;10.93;5.20;;;26.20;76.40;;;;;;5118338;28;20180;-48
2022/10/27 08:36:37;;;;;;;7.53;5.57;;;26.60;74.70;;;;;;5117571;28;20563;-44
2022/10/27 08:39:04;;;;;;;7.67;5.40;;;27.00;73.20;;;;;;5117626;28;20183;-46
2022/10/27 08:41:44;;;;;;;7.87;5.53;;;27.30;70.70;;;;;;5117594;28;20488;-46
2022/10/27 08:44:14;;;;;;;6.30;4.67;;;27.70;69.20;;;;;;5116998;28;20661;-50
2022/10/27 08:46:49;;;;;;;6.30;4.40;;;28.00;66.60;;;;;;5117419;28;20416;-46
2022/10/27 08:49:27;;;;;;;7.23;4.47;;;28.30;63.40;;;;;;5116958;28;20389;-49
2022/10/27 08:51:56;;;;;;;5.33;4.40;;;28.60;60.10;;;;;;5115083;28;20470;-45
2022/10/27 08:54:23;;;;;;;8.10;4.50;;;28.80;59.30;;;;;;5117712;28;20496;-45
2022/10/27 08:56:49;;;;;;;10.27;4.40;;;29.10;58.40;;;;;;5098735;28;20407;-46
2022/10/27 08:59:20;;;;;;;6.90;4.80;;;29.30;57.30;;;;;;5115494;28;20401;-44
2022/10/27 09:02:18;;;;;;;6.23;3.90;;;29.60;56.50;;;;;;5095678;28;20792;-45
2022/10/27 09:04:53;;;;;;;7.53;4.20;;;29.90;55.30;;;;;;5095553;28;20418;-44
2022/10/27 09:07:19;;;;;;;5.73;4.23;;;30.10;54.20;;;;;;5115483;28;20511;-45
2022/10/27 09:09:46;;;;;;;4.20;3.80;;;30.40;53.10;;;;;;5116011;28;20491;-46
2022/10/27 09:13:03;;;;;;;4.70;3.60;;;30.60;52.30;;;;;;5098566;28;20274;-45
2022/10/27 09:15:42;;;;;;;6.20;3.67;;;30.80;51.30;;;;;;5058204;28;20415;-46
2022/10/27 09:18:23;;;;;;;5.50;3.77;;;31.10;50.00;;;;;;5116513;28;20412;-44
2022/10/27 09:20:57;;;;;;;5.43;3.47;;;31.30;49.40;;;;;;5099222;28;20457;-48
2022/10/27 09:23:35;;;;;;;4.90;3.20;;;31.60;48.40;;;;;;5117424;28;20837;-45
2022/10/27 09:26:01;;;;;;;4.73;3.43;;;31.80;47.70;;;;;;5117748;28;20681;-44
2022/10/27 09:28:40;;;;;;;5.83;3.60;;;32.00;47.20;;;;;;5115203;28;20439;-44
2022/10/27 09:31:12;;;;;;;4.63;3.27;;;32.20;46.20;;;;;;5079770;28;20444;-45
2022/10/27 09:33:38;;;;;;;3.70;3.10;;;32.40;45.90;;;;;;5096301;28;20388;-47
2022/10/27 09:36:13;;;;;;;5.10;3.40;;;32.70;45.50;;;;;;5078528;28;20409;-46
2022/10/27 09:38:39;;;;;;;5.20;3.07;;;32.90;44.70;;;;;;5096063;28;20421;-47
2022/10/27 09:41:06;;;;;;;4.37;3.40;;;33.20;44.30;;;;;;5096872;28;20436;-44
2022/10/27 09:43:32;;;;;;;4.33;3.30;;;33.40;43.60;;;;;;5078404;28;20850;-48
2022/10/27 09:46:21;;;;;;;4.70;2.97;;;33.60;43.50;;;;;;5079128;28;20538;-48
2022/10/27 09:48:48;;;;;;;5.87;3.40;;;33.90;43.00;;;;;;5078554;28;20496;-43
2022/10/27 09:51:21;;;;;;;3.90;3.37;;;34.20;42.70;;;;;;5076481;28;20578;-48
2022/10/27 09:53:51;;;;;;;5.93;3.00;;;34.50;42.40;;;;;;5095007;28;20579;-45
2022/10/27 09:56:32;;;;;;;4.70;3.10;;;34.70;41.70;;;;;;5096422;28;20502;-45
2022/10/27 09:59:01;;;;;;;5.13;3.53;;;35.00;41.00;;;;;;5078591;28;20416;-45
2022/10/27 10:01:41;;;;;;;5.30;3.00;;;35.20;40.30;;;;;;5096125;28;20495;-44
2022/10/27 10:04:38;;;;;;;5.20;3.57;;;35.40;40.10;;;;;;5095476;28;20753;-45
2022/10/27 10:07:06;;;;;;;5.10;3.67;;;35.70;39.90;;;;;;5079150;28;20445;-44
2022/10/27 10:09:38;;;;;;;5.10;3.10;;;36.00;39.60;;;;;;5096197;28;20430;-45
2022/10/27 10:12:22;;;;;;;5.03;2.97;;;36.10;38.90;;;;;;5078783;28;20844;-47
2022/10/27 10:14:48;;;;;;;4.53;2.87;;;36.30;38.60;;;;;;5095580;28;20416;-45
2022/10/27 10:17:27;;;;;;;4.27;2.93;;;36.50;38.10;;;;;;5096114;28;20410;-46
2022/10/27 10:19:56;;;;;;;5.10;3.47;;;36.70;38.10;;;;;;5097972;28;20823;-44
2022/10/27 10:22:26;;;;;;;4.83;2.90;;;36.90;37.90;;;;;;5080831;28;20460;-45
2022/10/27 10:24:52;;;;;;;7.17;3.50;;;37.10;37.70;;;;;;5097858;28;20424;-47
2022/10/27 10:27:29;;;;;;;6.50;3.40;;;37.40;37.10;;;;;;5096312;28;20599;-46
2022/10/27 10:29:57;;;;;;;4.20;3.13;;;37.50;36.40;;;;;;5096914;28;20533;-49
2022/10/27 10:32:28;;;;;;;4.10;3.40;;;37.80;36.60;;;;;;5077775;28;20425;-46
2022/10/27 10:34:54;;;;;;;4.43;3.00;;;38.00;36.50;;;;;;5096638;28;20439;-47
2022/10/27 10:37:40;;;;;;;4.00;3.03;;;38.30;36.10;;;;;;5097754;28;20412;-45
2022/10/27 10:40:26;;;;;;;7.50;2.60;;;38.50;35.90;;;;;;5097373;28;20195;-45
2022/10/27 10:43:21;;;;;;;5.20;3.07;;;38.70;35.50;;;;;;5096177;28;20567;-46
2022/10/27 10:45:51;;;;;;;4.73;3.47;;;38.90;35.30;;;;;;5075670;28;20449;-45
2022/10/27 10:48:23;;;;;;;6.03;3.80;;;39.10;34.50;;;;;;5078681;28;20727;-45
2022/10/27 10:50:51;;;;;;;7.13;3.30;;;39.20;34.20;;;;;;5079554;28;20556;-47
2022/10/27 10:53:31;;;;;;;4.00;3.20;;;39.40;34.20;;;;;;5091272;28;20552;-44
2022/10/27 10:56:05;;;;;;;3.37;2.80;;;39.60;34.10;;;;;;5097534;28;20439;-44
2022/10/27 10:58:33;;;;;;;4.27;3.20;;;39.70;33.60;;;;;;5098401;28;20438;-48
2022/10/27 11:01:02;;;;;;;5.27;2.80;;;39.70;33.60;;;;;;5097257;28;20769;-47
2022/10/27 11:03:33;;;;;;;3.70;2.30;;;39.90;33.60;;;;;;5097746;28;20431;-47
2022/10/27 11:06:01;;;;;;;3.43;2.83;;;40.00;33.50;;;;;;5096745;28;20568;-44
2022/10/27 11:08:37;;;;;;;3.83;2.77;;;40.20;33.70;;;;;;5098545;28;20443;-45
2022/10/27 11:11:04;;;;;;;4.17;3.10;;;40.30;33.60;;;;;;5096932;28;20623;-53
2022/10/27 11:13:51;;;;;;;4.20;2.90;;;40.50;33.10;;;;;;5101385;28;20430;-49
2022/10/27 11:16:17;;;;;;;4.30;2.77;;;40.60;32.90;;;;;;5100156;28;20425;-47
2022/10/27 11:18:48;;;;;;;6.07;3.40;;;40.60;31.90;;;;;;5099461;28;20825;-47
2022/10/27 11:21:16;;;;;;;4.47;3.50;;;40.70;32.30;;;;;;5099796;28;20465;-50
2022/10/27 11:23:48;;;;;;;4.03;3.10;;;40.90;32.70;;;;;;5097982;28;20422;-48
2022/10/27 11:26:23;;;;;;;4.20;3.30;;;41.00;32.50;;;;;;5097638;28;20424;-47
2022/10/27 11:29:22;;;;;;;3.47;2.80;;;41.10;32.30;;;;;;5096962;28;20714;-50
2022/10/27 11:31:57;;;;;;;3.83;3.00;;;41.40;32.20;;;;;;5079433;28;20480;-44
2022/10/27 11:34:40;;;;;;;3.67;3.10;;;41.50;31.60;;;;;;5096858;28;20424;-51
2022/10/27 11:37:10;;;;;;;5.37;3.10;;;41.70;31.80;;;;;;5099145;28;20421;-50
2022/10/27 11:40:04;;;;;;;4.00;2.97;;;41.80;31.70;;;;;;5083209;28;20551;-47
2022/10/27 11:42:54;;;;;;;5.17;2.57;;;41.90;31.00;;;;;;5116169;28;20424;-44
2022/10/27 11:45:37;;;;;;;4.03;2.90;;;41.90;30.70;;;;;;5096453;28;20696;-46
2022/10/27 11:48:19;;;;;;;7.00;2.90;;;41.90;30.90;;;;;;5116861;28;20418;-46
2022/10/27 11:50:58;;;;;;;4.83;2.70;;;42.00;30.80;;;;;;5116697;28;20750;-47
2022/10/27 11:53:24;;;;;;;4.40;3.10;;;41.90;30.50;;;;;;5114065;28;20425;-47
2022/10/27 11:56:22;;;;;;;3.80;3.30;;;42.00;31.00;;;;;;5114432;28;20488;-46
2022/10/27 11:58:54;;;;;;;4.13;2.70;;;42.10;30.90;;;;;;5096015;28;20223;-47
2022/10/27 12:01:30;;;;;;;6.20;2.77;;;42.20;30.70;;;;;;5114508;28;20608;-45
2022/10/27 12:04:17;;;;;;;4.40;2.40;;;42.20;30.60;;;;;;5114874;28;20853;-47
2022/10/27 12:06:48;;;;;;;5.07;2.80;;;42.40;30.10;;;;;;5115841;28;20458;-46
2022/10/27 12:09:44;;;;;;;5.30;3.00;;;42.50;30.50;;;;;;5116826;28;20998;-51
2022/10/27 12:12:27;;;;;;;3.67;2.90;;;42.60;29.90;;;;;;5114935;28;20763;-46
2022/10/27 12:15:04;;;;;;;4.73;2.83;;;42.70;30.10;;;;;;5116641;28;20427;-47
2022/10/27 12:17:44;;;;;;;4.20;2.80;;;42.90;29.80;;;;;;5117474;28;20414;-47
2022/10/27 12:20:14;;;;;;;4.97;2.70;;;43.00;29.80;;;;;;5118025;28;20473;-48
2022/10/27 12:22:47;;;;;;;4.70;2.60;;;43.20;29.80;;;;;;5117819;28;20530;-48
2022/10/27 12:25:33;;;;;;;5.80;3.00;;;43.30;30.00;;;;;;5100002;28;20431;-49
2022/10/27 12:28:01;;;;;;;5.77;2.90;;;43.40;31.80;;;;;;5099908;28;20441;-48
2022/10/27 12:30:27;;;;;;;4.57;2.93;;;43.30;30.00;;;;;;5081942;28;20500;-46
2022/10/27 12:33:16;;;;;;;3.80;2.77;;;43.40;31.70;;;;;;5118164;28;20455;-45
2022/10/27 12:35:56;;;;;;;4.70;3.33;;;43.40;32.50;;;;;;5116944;28;20175;-45
2022/10/27 12:38:49;;;;;;;5.67;2.83;;;43.60;32.00;;;;;;5098377;28;20441;-48
2022/10/27 12:41:35;;;;;;;5.20;3.30;;;43.60;31.80;;;;;;5114081;28;20775;-47
2022/10/27 12:44:15;;;;;;;4.20;2.20;;;43.70;32.50;;;;;;5115671;28;20425;-46
2022/10/27 12:47:04;;;;;;;6.33;3.47;;;43.90;32.90;;;;;;5116225;28;20430;-44
2022/10/27 12:50:05;;;;;;;5.73;2.80;;;43.90;32.80;;;;;;5115632;28;20623;-48
2022/10/27 12:52:35;;;;;;;8.43;3.17;;;44.00;32.40;;;;;;5117332;28;20438;-46
2022/10/27 12:55:04;;;;;;;3.77;2.60;;;43.90;30.80;;;;;;5098792;28;20413;-48
2022/10/27 12:57:49;;;;;;;2.97;2.30;;;43.70;30.00;;;;;;5117023;28;20987;-46
2022/10/27 13:00:22;;;;;;;4.30;2.63;;;43.20;29.80;;;;;;5095856;28;20935;-47
2022/10/27 13:03:21;;;;;;;4.17;2.97;;;42.80;29.90;;;;;;5096208;28;20776;-47
2022/10/27 13:05:59;;;;;;;4.43;2.60;;;42.40;31.40;;;;;;5093671;28;20488;-46
2022/10/27 13:08:40;;;;;;;5.07;2.87;;;42.30;31.70;;;;;;5095405;28;20410;-47